sensor_id;sensor_type;location;lat;lon;timestamp;P1;durP1;ratioP1;P2;durP2;ratioP2
40849;SDS011;26571;41.610;25.380;2022-10-31T00:02:02;4.22;;;1.25;;
40849;SDS011;26571;41.610;25.380;2022-10-31T00:04:27;2.03;;;1.83;;
40849;SDS011;26571;41.610;25.380;2022-10-31T00:06:52;3.90;;;2.17;;
40849;SDS011;26571;41.610;25.380;2022-10-31T00:09:18;2.90;;;1.20;;
40849;SDS011;26571;41.610;25.380;2022-10-31T00:11:43;2.42;;;1.42;;
40849;SDS011;26571;41.610;25.380;2022-10-31T00:14:09;1.52;;;1.27;;
40849;SDS011;26571;41.610;25.380;2022-10-31T00:16:34;2.25;;;1.35;;
40849;SDS011;26571;41.610;25.380;2022-10-31T00:19:00;1.35;;;1.08;;
40849;SDS011;26571;41.610;25.380;2022-10-31T00:21:28;3.92;;;1.98;;
40849;SDS011;26571;41.610;25.380;2022-10-31T00:23:54;2.75;;;2.50;;
40849;SDS011;26571;41.610;25.380;2022-10-31T00:26:20;1.27;;;1.17;;
40849;SDS011;26571;41.610;25.380;2022-10-31T00:28:45;5.65;;;1.63;;
40849;SDS011;26571;41.610;25.380;2022-10-31T00:31:11;1.77;;;1.58;;
40849;SDS011;26571;41.610;25.380;2022-10-31T00:33:38;2.03;;;1.70;;
40849;SDS011;26571;41.610;25.380;2022-10-31T00:36:05;2.00;;;1.30;;
40849;SDS011;26571;41.610;25.380;2022-10-31T00:38:32;2.47;;;2.08;;
40849;SDS011;26571;41.610;25.380;2022-10-31T00:40:57;10.00;;;1.75;;
40849;SDS011;26571;41.610;25.380;2022-10-31T00:43:23;2.28;;;1.70;;
40849;SDS011;26571;41.610;25.380;2022-10-31T00:45:48;3.10;;;1.60;;
40849;SDS011;26571;41.610;25.380;2022-10-31T00:48:14;1.75;;;0.95;;
40849;SDS011;26571;41.610;25.380;2022-10-31T00:50:40;3.50;;;1.90;;
40849;SDS011;26571;41.610;25.380;2022-10-31T00:53:05;2.47;;;2.15;;
40849;SDS011;26571;41.610;25.380;2022-10-31T00:55:31;9.38;;;2.55;;
40849;SDS011;26571;41.610;25.380;2022-10-31T00:57:57;2.25;;;1.67;;
40849;SDS011;26571;41.610;25.380;2022-10-31T01:00:22;4.18;;;2.25;;
40849;SDS011;26571;41.610;25.380;2022-10-31T01:02:47;5.28;;;2.00;;
40849;SDS011;26571;41.610;25.380;2022-10-31T01:05:13;2.80;;;1.60;;
40849;SDS011;26571;41.610;25.380;2022-10-31T01:07:39;4.40;;;2.33;;
40849;SDS011;26571;41.610;25.380;2022-10-31T01:10:06;3.05;;;2.13;;
40849;SDS011;26571;41.610;25.380;2022-10-31T01:12:39;2.03;;;1.80;;
40849;SDS011;26571;41.610;25.380;2022-10-31T01:15:05;1.58;;;1.40;;
40849;SDS011;26571;41.610;25.380;2022-10-31T01:17:32;3.33;;;1.33;;
40849;SDS011;26571;41.610;25.380;2022-10-31T01:19:57;2.42;;;1.98;;
40849;SDS011;26571;41.610;25.380;2022-10-31T01:22:23;2.28;;;1.70;;
40849;SDS011;26571;41.610;25.380;2022-10-31T01:24:48;3.47;;;1.77;;
40849;SDS011;26571;41.610;25.380;2022-10-31T01:27:14;4.70;;;1.70;;
40849;SDS011;26571;41.610;25.380;2022-10-31T01:29:39;2.70;;;2.28;;
40849;SDS011;26571;41.610;25.380;2022-10-31T01:32:04;3.83;;;2.25;;
40849;SDS011;26571;41.610;25.380;2022-10-31T01:34:30;1.67;;;1.58;;
40849;SDS011;26571;41.610;25.380;2022-10-31T01:36:55;1.85;;;1.58;;
40849;SDS011;26571;41.610;25.380;2022-10-31T01:39:21;1.45;;;1.27;;
40849;SDS011;26571;41.610;25.380;2022-10-31T01:41:48;2.97;;;2.00;;
40849;SDS011;26571;41.610;25.380;2022-10-31T01:46:44;2.90;;;1.52;;
40849;SDS011;26571;41.610;25.380;2022-10-31T01:49:54;2.03;;;1.40;;
40849;SDS011;26571;41.610;25.380;2022-10-31T01:54:52;6.07;;;1.38;;
40849;SDS011;26571;41.610;25.380;2022-10-31T01:57:23;4.22;;;1.63;;
40849;SDS011;26571;41.610;25.380;2022-10-31T01:59:51;1.98;;;1.38;;
40849;SDS011;26571;41.610;25.380;2022-10-31T02:02:20;2.67;;;2.00;;
40849;SDS011;26571;41.610;25.380;2022-10-31T02:04:45;5.10;;;1.63;;
40849;SDS011;26571;41.610;25.380;2022-10-31T02:07:20;1.27;;;1.10;;
40849;SDS011;26571;41.610;25.380;2022-10-31T02:09:51;2.03;;;1.92;;
40849;SDS011;26571;41.610;25.380;2022-10-31T02:12:18;4.25;;;1.42;;
40849;SDS011;26571;41.610;25.380;2022-10-31T02:14:45;4.85;;;1.70;;
40849;SDS011;26571;41.610;25.380;2022-10-31T02:17:11;1.83;;;1.60;;
40849;SDS011;26571;41.610;25.380;2022-10-31T02:22:45;2.25;;;2.05;;
40849;SDS011;26571;41.610;25.380;2022-10-31T02:38:39;1.30;;;1.30;;
40849;SDS011;26571;41.610;25.380;2022-10-31T02:44:03;3.67;;;2.10;;
40849;SDS011;26571;41.610;25.380;2022-10-31T02:46:48;6.85;;;1.90;;
40849;SDS011;26571;41.610;25.380;2022-10-31T02:49:21;2.63;;;2.15;;
40849;SDS011;26571;41.610;25.380;2022-10-31T02:51:47;2.08;;;1.63;;
40849;SDS011;26571;41.610;25.380;2022-10-31T02:54:23;3.25;;;1.40;;
40849;SDS011;26571;41.610;25.380;2022-10-31T02:56:51;2.97;;;1.92;;
40849;SDS011;26571;41.610;25.380;2022-10-31T02:59:23;1.77;;;1.58;;
40849;SDS011;26571;41.610;25.380;2022-10-31T03:10:10;3.53;;;1.48;;
40849;SDS011;26571;41.610;25.380;2022-10-31T03:15:12;3.08;;;1.77;;
40849;SDS011;26571;41.610;25.380;2022-10-31T03:20:16;4.25;;;1.85;;
40849;SDS011;26571;41.610;25.380;2022-10-31T03:22:48;3.95;;;1.73;;
40849;SDS011;26571;41.610;25.380;2022-10-31T03:25:14;1.60;;;1.30;;
40849;SDS011;26571;41.610;25.380;2022-10-31T03:27:40;2.30;;;1.48;;
40849;SDS011;26571;41.610;25.380;2022-10-31T03:30:09;3.53;;;1.40;;
40849;SDS011;26571;41.610;25.380;2022-10-31T03:32:36;4.25;;;2.13;;
40849;SDS011;26571;41.610;25.380;2022-10-31T03:35:05;2.08;;;1.67;;
40849;SDS011;26571;41.610;25.380;2022-10-31T03:37:33;2.05;;;1.25;;
40849;SDS011;26571;41.610;25.380;2022-10-31T03:40:01;1.55;;;1.42;;
40849;SDS011;26571;41.610;25.380;2022-10-31T03:42:33;4.30;;;1.50;;
40849;SDS011;26571;41.610;25.380;2022-10-31T03:47:38;2.83;;;1.52;;
40849;SDS011;26571;41.610;25.380;2022-10-31T03:50:05;2.67;;;1.92;;
40849;SDS011;26571;41.610;25.380;2022-10-31T03:55:17;1.70;;;1.60;;
40849;SDS011;26571;41.610;25.380;2022-10-31T04:00:21;1.77;;;1.58;;
40849;SDS011;26571;41.610;25.380;2022-10-31T04:02:48;2.33;;;1.27;;
40849;SDS011;26571;41.610;25.380;2022-10-31T04:05:19;4.57;;;1.77;;
40849;SDS011;26571;41.610;25.380;2022-10-31T04:07:46;1.33;;;1.10;;
40849;SDS011;26571;41.610;25.380;2022-10-31T04:10:16;2.03;;;1.30;;
40849;SDS011;26571;41.610;25.380;2022-10-31T04:12:44;3.17;;;1.20;;
40849;SDS011;26571;41.610;25.380;2022-10-31T04:15:17;3.55;;;1.20;;
40849;SDS011;26571;41.610;25.380;2022-10-31T04:17:46;4.55;;;1.48;;
40849;SDS011;26571;41.610;25.380;2022-10-31T04:20:17;1.70;;;1.60;;
40849;SDS011;26571;41.610;25.380;2022-10-31T04:22:43;1.40;;;1.30;;
40849;SDS011;26571;41.610;25.380;2022-10-31T04:25:09;3.97;;;1.60;;
40849;SDS011;26571;41.610;25.380;2022-10-31T04:27:34;4.78;;;1.65;;
40849;SDS011;26571;41.610;25.380;2022-10-31T04:30:00;1.75;;;1.50;;
40849;SDS011;26571;41.610;25.380;2022-10-31T04:32:25;3.20;;;2.38;;
40849;SDS011;26571;41.610;25.380;2022-10-31T04:34:51;2.38;;;1.73;;
40849;SDS011;26571;41.610;25.380;2022-10-31T04:37:16;5.03;;;2.25;;
40849;SDS011;26571;41.610;25.380;2022-10-31T04:39:42;5.22;;;2.17;;
40849;SDS011;26571;41.610;25.380;2022-10-31T04:42:07;2.97;;;1.35;;
40849;SDS011;26571;41.610;25.380;2022-10-31T04:44:32;2.97;;;2.63;;
40849;SDS011;26571;41.610;25.380;2022-10-31T04:46:58;2.85;;;2.20;;
40849;SDS011;26571;41.610;25.380;2022-10-31T04:49:23;2.60;;;1.63;;
40849;SDS011;26571;41.610;25.380;2022-10-31T04:51:49;2.63;;;1.65;;
40849;SDS011;26571;41.610;25.380;2022-10-31T04:54:14;5.47;;;4.25;;
40849;SDS011;26571;41.610;25.380;2022-10-31T04:56:40;3.22;;;3.03;;
40849;SDS011;26571;41.610;25.380;2022-10-31T04:59:05;10.73;;;2.22;;
40849;SDS011;26571;41.610;25.380;2022-10-31T05:01:30;3.97;;;2.17;;
40849;SDS011;26571;41.610;25.380;2022-10-31T05:03:56;8.50;;;2.55;;
40849;SDS011;26571;41.610;25.380;2022-10-31T05:06:21;6.13;;;1.75;;
40849;SDS011;26571;41.610;25.380;2022-10-31T05:08:47;1.77;;;1.33;;
40849;SDS011;26571;41.610;25.380;2022-10-31T05:11:12;6.38;;;1.58;;
40849;SDS011;26571;41.610;25.380;2022-10-31T05:13:38;6.47;;;2.53;;
40849;SDS011;26571;41.610;25.380;2022-10-31T05:16:03;5.95;;;2.30;;
40849;SDS011;26571;41.610;25.380;2022-10-31T05:18:29;5.05;;;2.45;;
40849;SDS011;26571;41.610;25.380;2022-10-31T05:20:54;2.88;;;2.65;;
40849;SDS011;26571;41.610;25.380;2022-10-31T05:23:19;2.67;;;2.47;;
40849;SDS011;26571;41.610;25.380;2022-10-31T05:25:45;4.30;;;2.00;;
40849;SDS011;26571;41.610;25.380;2022-10-31T05:28:10;2.70;;;2.13;;
40849;SDS011;26571;41.610;25.380;2022-10-31T05:30:36;3.13;;;2.58;;
40849;SDS011;26571;41.610;25.380;2022-10-31T05:33:01;4.20;;;2.70;;
40849;SDS011;26571;41.610;25.380;2022-10-31T05:35:27;4.47;;;2.10;;
40849;SDS011;26571;41.610;25.380;2022-10-31T05:37:55;4.38;;;2.65;;
40849;SDS011;26571;41.610;25.380;2022-10-31T05:40:22;6.22;;;2.55;;
40849;SDS011;26571;41.610;25.380;2022-10-31T05:42:50;1.83;;;1.63;;
40849;SDS011;26571;41.610;25.380;2022-10-31T05:45:17;6.15;;;3.35;;
40849;SDS011;26571;41.610;25.380;2022-10-31T05:47:50;8.60;;;2.78;;
40849;SDS011;26571;41.610;25.380;2022-10-31T05:50:17;6.60;;;3.63;;
40849;SDS011;26571;41.610;25.380;2022-10-31T05:52:42;6.28;;;4.55;;
40849;SDS011;26571;41.610;25.380;2022-10-31T05:55:08;4.88;;;3.10;;
40849;SDS011;26571;41.610;25.380;2022-10-31T05:57:33;6.30;;;4.05;;
40849;SDS011;26571;41.610;25.380;2022-10-31T05:59:59;7.60;;;3.47;;
40849;SDS011;26571;41.610;25.380;2022-10-31T06:02:25;5.70;;;3.35;;
40849;SDS011;26571;41.610;25.380;2022-10-31T06:04:51;10.18;;;3.80;;
40849;SDS011;26571;41.610;25.380;2022-10-31T06:07:17;6.72;;;3.15;;
40849;SDS011;26571;41.610;25.380;2022-10-31T06:09:42;4.45;;;2.90;;
40849;SDS011;26571;41.610;25.380;2022-10-31T06:12:08;6.45;;;2.63;;
40849;SDS011;26571;41.610;25.380;2022-10-31T06:14:33;3.65;;;2.30;;
40849;SDS011;26571;41.610;25.380;2022-10-31T06:16:58;6.97;;;3.05;;
40849;SDS011;26571;41.610;25.380;2022-10-31T06:19:24;4.47;;;2.58;;
40849;SDS011;26571;41.610;25.380;2022-10-31T06:21:49;6.30;;;2.38;;
40849;SDS011;26571;41.610;25.380;2022-10-31T06:24:14;7.28;;;1.58;;
40849;SDS011;26571;41.610;25.380;2022-10-31T06:26:40;4.38;;;1.55;;
40849;SDS011;26571;41.610;25.380;2022-10-31T06:29:06;5.50;;;1.75;;
40849;SDS011;26571;41.610;25.380;2022-10-31T06:31:31;3.90;;;1.63;;
40849;SDS011;26571;41.610;25.380;2022-10-31T06:33:57;5.07;;;1.88;;
40849;SDS011;26571;41.610;25.380;2022-10-31T06:36:22;6.55;;;2.35;;
40849;SDS011;26571;41.610;25.380;2022-10-31T06:38:48;4.60;;;2.63;;
40849;SDS011;26571;41.610;25.380;2022-10-31T06:41:13;6.25;;;2.50;;
40849;SDS011;26571;41.610;25.380;2022-10-31T06:43:38;7.60;;;2.67;;
40849;SDS011;26571;41.610;25.380;2022-10-31T06:46:04;4.10;;;2.33;;
40849;SDS011;26571;41.610;25.380;2022-10-31T06:48:30;7.32;;;2.38;;
40849;SDS011;26571;41.610;25.380;2022-10-31T06:50:59;7.43;;;1.90;;
40849;SDS011;26571;41.610;25.380;2022-10-31T06:53:26;4.90;;;2.70;;
40849;SDS011;26571;41.610;25.380;2022-10-31T06:55:54;4.63;;;3.15;;
40849;SDS011;26571;41.610;25.380;2022-10-31T06:58:20;3.97;;;3.07;;
40849;SDS011;26571;41.610;25.380;2022-10-31T07:00:46;4.22;;;2.53;;
40849;SDS011;26571;41.610;25.380;2022-10-31T07:03:12;5.10;;;2.35;;
40849;SDS011;26571;41.610;25.380;2022-10-31T07:08:05;3.05;;;2.75;;
40849;SDS011;26571;41.610;25.380;2022-10-31T07:10:32;7.30;;;3.08;;
40849;SDS011;26571;41.610;25.380;2022-10-31T07:13:03;8.57;;;3.42;;
40849;SDS011;26571;41.610;25.380;2022-10-31T07:15:33;6.32;;;3.03;;
40849;SDS011;26571;41.610;25.380;2022-10-31T07:18:00;7.75;;;3.30;;
40849;SDS011;26571;41.610;25.380;2022-10-31T07:20:26;10.65;;;3.17;;
40849;SDS011;26571;41.610;25.380;2022-10-31T07:22:52;4.63;;;2.78;;
40849;SDS011;26571;41.610;25.380;2022-10-31T07:25:18;9.32;;;2.10;;
40849;SDS011;26571;41.610;25.380;2022-10-31T07:27:43;8.70;;;2.13;;
40849;SDS011;26571;41.610;25.380;2022-10-31T07:30:10;3.60;;;1.92;;
40849;SDS011;26571;41.610;25.380;2022-10-31T07:32:40;2.15;;;1.60;;
40849;SDS011;26571;41.610;25.380;2022-10-31T07:35:07;3.63;;;1.40;;
40849;SDS011;26571;41.610;25.380;2022-10-31T07:39:59;3.15;;;1.10;;
40849;SDS011;26571;41.610;25.380;2022-10-31T07:42:24;1.90;;;1.13;;
40849;SDS011;26571;41.610;25.380;2022-10-31T07:44:50;4.15;;;2.63;;
40849;SDS011;26571;41.610;25.380;2022-10-31T07:47:15;3.70;;;1.58;;
40849;SDS011;26571;41.610;25.380;2022-10-31T07:49:40;6.78;;;3.13;;
40849;SDS011;26571;41.610;25.380;2022-10-31T07:52:06;4.35;;;2.90;;
40849;SDS011;26571;41.610;25.380;2022-10-31T07:54:31;5.20;;;2.60;;
40849;SDS011;26571;41.610;25.380;2022-10-31T07:56:57;1.90;;;1.67;;
40849;SDS011;26571;41.610;25.380;2022-10-31T07:59:22;4.20;;;1.77;;
40849;SDS011;26571;41.610;25.380;2022-10-31T08:01:47;2.17;;;1.33;;
40849;SDS011;26571;41.610;25.380;2022-10-31T08:04:13;12.85;;;2.20;;
40849;SDS011;26571;41.610;25.380;2022-10-31T08:06:38;4.05;;;1.67;;
40849;SDS011;26571;41.610;25.380;2022-10-31T08:09:04;2.20;;;1.77;;
40849;SDS011;26571;41.610;25.380;2022-10-31T08:11:29;3.85;;;1.23;;
40849;SDS011;26571;41.610;25.380;2022-10-31T08:13:54;4.00;;;1.13;;
40849;SDS011;26571;41.610;25.380;2022-10-31T08:16:20;7.55;;;1.77;;
40849;SDS011;26571;41.610;25.380;2022-10-31T08:18:45;3.05;;;1.33;;
40849;SDS011;26571;41.610;25.380;2022-10-31T08:21:11;3.47;;;1.75;;
40849;SDS011;26571;41.610;25.380;2022-10-31T08:23:36;5.70;;;2.77;;
40849;SDS011;26571;41.610;25.380;2022-10-31T08:26:01;6.45;;;1.27;;
40849;SDS011;26571;41.610;25.380;2022-10-31T08:28:27;7.60;;;1.23;;
40849;SDS011;26571;41.610;25.380;2022-10-31T08:30:52;2.67;;;1.23;;
40849;SDS011;26571;41.610;25.380;2022-10-31T08:33:18;2.50;;;1.45;;
40849;SDS011;26571;41.610;25.380;2022-10-31T08:35:44;4.15;;;1.15;;
40849;SDS011;26571;41.610;25.380;2022-10-31T08:38:10;4.82;;;1.42;;
40849;SDS011;26571;41.610;25.380;2022-10-31T08:40:37;4.70;;;1.65;;
40849;SDS011;26571;41.610;25.380;2022-10-31T08:43:04;3.73;;;1.23;;
40849;SDS011;26571;41.610;25.380;2022-10-31T08:45:31;5.57;;;1.25;;
40849;SDS011;26571;41.610;25.380;2022-10-31T08:47:59;3.65;;;1.50;;
40849;SDS011;26571;41.610;25.380;2022-10-31T08:50:25;5.85;;;1.25;;
40849;SDS011;26571;41.610;25.380;2022-10-31T08:52:51;5.97;;;1.30;;
40849;SDS011;26571;41.610;25.380;2022-10-31T08:55:17;6.72;;;1.15;;
40849;SDS011;26571;41.610;25.380;2022-10-31T08:57:42;8.50;;;1.53;;
40849;SDS011;26571;41.610;25.380;2022-10-31T09:00:09;6.15;;;1.38;;
40849;SDS011;26571;41.610;25.380;2022-10-31T09:02:34;6.73;;;1.20;;
40849;SDS011;26571;41.610;25.380;2022-10-31T09:05:00;2.97;;;1.70;;
40849;SDS011;26571;41.610;25.380;2022-10-31T09:07:25;9.37;;;1.47;;
40849;SDS011;26571;41.610;25.380;2022-10-31T09:09:51;10.07;;;2.27;;
40849;SDS011;26571;41.610;25.380;2022-10-31T09:12:16;4.43;;;1.07;;
40849;SDS011;26571;41.610;25.380;2022-10-31T09:14:41;5.47;;;1.40;;
40849;SDS011;26571;41.610;25.380;2022-10-31T09:17:07;3.47;;;1.50;;
40849;SDS011;26571;41.610;25.380;2022-10-31T09:19:32;4.37;;;0.93;;
40849;SDS011;26571;41.610;25.380;2022-10-31T09:21:57;4.37;;;1.20;;
40849;SDS011;26571;41.610;25.380;2022-10-31T09:24:23;6.43;;;0.83;;
40849;SDS011;26571;41.610;25.380;2022-10-31T09:26:48;3.20;;;0.63;;
40849;SDS011;26571;41.610;25.380;2022-10-31T09:29:14;7.43;;;3.43;;
40849;SDS011;26571;41.610;25.380;2022-10-31T09:31:39;4.57;;;0.90;;
40849;SDS011;26571;41.610;25.380;2022-10-31T09:34:04;1.30;;;0.80;;
40849;SDS011;26571;41.610;25.380;2022-10-31T09:36:30;2.90;;;0.90;;
40849;SDS011;26571;41.610;25.380;2022-10-31T09:38:58;3.13;;;1.47;;
40849;SDS011;26571;41.610;25.380;2022-10-31T09:47:00;7.68;;;3.85;;
40849;SDS011;26571;41.610;25.380;2022-10-31T09:49:49;11.68;;;3.38;;
40849;SDS011;26571;41.610;25.380;2022-10-31T09:52:38;3.60;;;1.05;;
40849;SDS011;26571;41.610;25.380;2022-10-31T09:55:12;3.22;;;0.80;;
40849;SDS011;26571;41.610;25.380;2022-10-31T09:57:42;3.63;;;0.60;;
40849;SDS011;26571;41.610;25.380;2022-10-31T10:00:17;3.90;;;0.85;;
40849;SDS011;26571;41.610;25.380;2022-10-31T10:03:07;2.80;;;0.68;;
40849;SDS011;26571;41.610;25.380;2022-10-31T10:05:53;2.33;;;0.52;;
40849;SDS011;26571;41.610;25.380;2022-10-31T10:08:28;2.55;;;0.50;;
40849;SDS011;26571;41.610;25.380;2022-10-31T10:24:36;3.42;;;0.77;;
40849;SDS011;26571;41.610;25.380;2022-10-31T10:30:02;0.95;;;0.50;;
40849;SDS011;26571;41.610;25.380;2022-10-31T10:32:40;2.47;;;0.57;;
40849;SDS011;26571;41.610;25.380;2022-10-31T10:35:20;2.38;;;0.50;;
40849;SDS011;26571;41.610;25.380;2022-10-31T10:37:48;4.63;;;1.75;;
40849;SDS011;26571;41.610;25.380;2022-10-31T10:40:21;1.50;;;0.40;;
40849;SDS011;26571;41.610;25.380;2022-10-31T10:45:58;2.38;;;1.10;;
40849;SDS011;26571;41.610;25.380;2022-10-31T10:49:19;1.90;;;0.30;;
40849;SDS011;26571;41.610;25.380;2022-10-31T10:52:02;2.67;;;0.50;;
40849;SDS011;26571;41.610;25.380;2022-10-31T10:54:42;3.35;;;0.60;;
40849;SDS011;26571;41.610;25.380;2022-10-31T11:00:40;0.98;;;0.45;;
40849;SDS011;26571;41.610;25.380;2022-10-31T11:03:05;4.05;;;0.70;;
40849;SDS011;26571;41.610;25.380;2022-10-31T11:05:38;1.40;;;0.80;;
40849;SDS011;26571;41.610;25.380;2022-10-31T11:08:28;3.05;;;0.60;;
40849;SDS011;26571;41.610;25.380;2022-10-31T11:13:26;2.17;;;0.30;;
40849;SDS011;26571;41.610;25.380;2022-10-31T11:15:56;0.82;;;0.30;;
40849;SDS011;26571;41.610;25.380;2022-10-31T11:18:24;5.25;;;1.38;;
40849;SDS011;26571;41.610;25.380;2022-10-31T11:20:53;2.47;;;0.40;;
40849;SDS011;26571;41.610;25.380;2022-10-31T11:23:21;2.60;;;0.55;;
40849;SDS011;26571;41.610;25.380;2022-10-31T11:28:43;1.55;;;0.30;;
40849;SDS011;26571;41.610;25.380;2022-10-31T11:31:11;1.33;;;0.40;;
40849;SDS011;26571;41.610;25.380;2022-10-31T11:33:46;3.78;;;0.98;;
40849;SDS011;26571;41.610;25.380;2022-10-31T11:36:24;18.85;;;1.65;;
40849;SDS011;26571;41.610;25.380;2022-10-31T11:39:02;0.60;;;0.30;;
40849;SDS011;26571;41.610;25.380;2022-10-31T11:41:32;2.50;;;0.30;;
40849;SDS011;26571;41.610;25.380;2022-10-31T11:46:54;2.35;;;0.32;;
40849;SDS011;26571;41.610;25.380;2022-10-31T11:52:20;3.17;;;0.63;;
40849;SDS011;26571;41.610;25.380;2022-10-31T11:54:57;0.70;;;0.30;;
40849;SDS011;26571;41.610;25.380;2022-10-31T11:59:57;5.53;;;0.77;;
40849;SDS011;26571;41.610;25.380;2022-10-31T12:02:24;1.45;;;0.88;;
40849;SDS011;26571;41.610;25.380;2022-10-31T12:07:26;1.40;;;0.50;;
40849;SDS011;26571;41.610;25.380;2022-10-31T12:09:51;2.87;;;0.93;;
40849;SDS011;26571;41.610;25.380;2022-10-31T12:17:25;2.70;;;0.50;;
40849;SDS011;26571;41.610;25.380;2022-10-31T12:20:18;3.47;;;0.40;;
40849;SDS011;26571;41.610;25.380;2022-10-31T12:53:52;4.82;;;1.98;;
40849;SDS011;26571;41.610;25.380;2022-10-31T13:01:55;1.52;;;0.60;;
40849;SDS011;26571;41.610;25.380;2022-10-31T13:04:38;3.30;;;0.82;;
40849;SDS011;26571;41.610;25.380;2022-10-31T13:07:12;3.63;;;0.52;;
40849;SDS011;26571;41.610;25.380;2022-10-31T13:12:24;2.58;;;1.05;;
40849;SDS011;26571;41.610;25.380;2022-10-31T13:14:59;2.72;;;1.02;;
40849;SDS011;26571;41.610;25.380;2022-10-31T13:17:33;0.85;;;0.50;;
40849;SDS011;26571;41.610;25.380;2022-10-31T13:22:42;6.05;;;1.70;;
40849;SDS011;26571;41.610;25.380;2022-10-31T13:25:13;2.30;;;0.60;;
40849;SDS011;26571;41.610;25.380;2022-10-31T13:30:19;4.80;;;1.13;;
40849;SDS011;26571;41.610;25.380;2022-10-31T13:33:02;8.23;;;1.52;;
40849;SDS011;26571;41.610;25.380;2022-10-31T13:49:01;4.53;;;0.98;;
40849;SDS011;26571;41.610;25.380;2022-10-31T13:51:28;2.92;;;0.60;;
40849;SDS011;26571;41.610;25.380;2022-10-31T13:56:21;3.00;;;1.38;;
40849;SDS011;26571;41.610;25.380;2022-10-31T14:01:33;6.90;;;1.05;;
40849;SDS011;26571;41.610;25.380;2022-10-31T14:11:54;3.22;;;0.60;;
40849;SDS011;26571;41.610;25.380;2022-10-31T14:14:25;4.15;;;0.70;;
40849;SDS011;26571;41.610;25.380;2022-10-31T14:16:57;2.15;;;0.60;;
40849;SDS011;26571;41.610;25.380;2022-10-31T14:19:24;1.75;;;0.65;;
40849;SDS011;26571;41.610;25.380;2022-10-31T14:21:53;8.00;;;1.20;;
40849;SDS011;26571;41.610;25.380;2022-10-31T14:34:32;2.55;;;0.50;;
40849;SDS011;26571;41.610;25.380;2022-10-31T14:48:07;11.90;;;5.57;;
40849;SDS011;26571;41.610;25.380;2022-10-31T14:50:54;19.20;;;8.25;;
40849;SDS011;26571;41.610;25.380;2022-10-31T14:53:34;18.02;;;8.88;;
40849;SDS011;26571;41.610;25.380;2022-10-31T14:56:09;2.45;;;2.03;;
40849;SDS011;26571;41.610;25.380;2022-10-31T14:58:40;6.25;;;4.25;;
40849;SDS011;26571;41.610;25.380;2022-10-31T15:01:15;7.45;;;2.80;;
40849;SDS011;26571;41.610;25.380;2022-10-31T15:03:46;5.15;;;2.45;;
40849;SDS011;26571;41.610;25.380;2022-10-31T15:06:13;10.70;;;3.05;;
40849;SDS011;26571;41.610;25.380;2022-10-31T15:11:15;5.32;;;4.53;;
40849;SDS011;26571;41.610;25.380;2022-10-31T15:13:50;7.40;;;3.03;;
40849;SDS011;26571;41.610;25.380;2022-10-31T15:16:33;6.03;;;3.70;;
40849;SDS011;26571;41.610;25.380;2022-10-31T15:19:10;8.25;;;3.38;;
40849;SDS011;26571;41.610;25.380;2022-10-31T15:21:42;9.73;;;4.95;;
40849;SDS011;26571;41.610;25.380;2022-10-31T15:24:11;6.93;;;4.55;;
40849;SDS011;26571;41.610;25.380;2022-10-31T15:26:43;5.38;;;4.60;;
40849;SDS011;26571;41.610;25.380;2022-10-31T15:29:17;12.48;;;4.70;;
40849;SDS011;26571;41.610;25.380;2022-10-31T15:31:57;10.27;;;4.25;;
40849;SDS011;26571;41.610;25.380;2022-10-31T15:34:41;9.48;;;3.60;;
40849;SDS011;26571;41.610;25.380;2022-10-31T15:37:09;23.88;;;3.92;;
40849;SDS011;26571;41.610;25.380;2022-10-31T15:39:36;13.70;;;5.70;;
40849;SDS011;26571;41.610;25.380;2022-10-31T15:42:02;23.10;;;10.77;;
40849;SDS011;26571;41.610;25.380;2022-10-31T15:44:28;19.33;;;11.60;;
40849;SDS011;26571;41.610;25.380;2022-10-31T15:47:06;16.08;;;9.10;;
40849;SDS011;26571;41.610;25.380;2022-10-31T15:49:42;18.48;;;8.98;;
40849;SDS011;26571;41.610;25.380;2022-10-31T15:52:37;13.10;;;7.57;;
40849;SDS011;26571;41.610;25.380;2022-10-31T15:57:34;17.05;;;7.22;;
40849;SDS011;26571;41.610;25.380;2022-10-31T16:00:05;13.75;;;5.88;;
40849;SDS011;26571;41.610;25.380;2022-10-31T16:02:31;17.65;;;6.00;;
40849;SDS011;26571;41.610;25.380;2022-10-31T16:05:00;10.52;;;6.20;;
40849;SDS011;26571;41.610;25.380;2022-10-31T16:07:27;15.63;;;9.05;;
40849;SDS011;26571;41.610;25.380;2022-10-31T16:09:57;20.63;;;8.70;;
40849;SDS011;26571;41.610;25.380;2022-10-31T16:12:25;14.00;;;8.00;;
40849;SDS011;26571;41.610;25.380;2022-10-31T16:14:59;18.08;;;9.38;;
40849;SDS011;26571;41.610;25.380;2022-10-31T16:17:25;15.70;;;9.82;;
40849;SDS011;26571;41.610;25.380;2022-10-31T16:19:53;29.15;;;15.38;;
40849;SDS011;26571;41.610;25.380;2022-10-31T16:22:26;17.02;;;11.75;;
40849;SDS011;26571;41.610;25.380;2022-10-31T16:27:25;15.48;;;8.70;;
40849;SDS011;26571;41.610;25.380;2022-10-31T16:29:57;18.92;;;11.73;;
40849;SDS011;26571;41.610;25.380;2022-10-31T17:50:26;15.80;;;9.20;;
40849;SDS011;26571;41.610;25.380;2022-10-31T20:24:05;3.83;;;3.20;;
40849;SDS011;26571;41.610;25.380;2022-10-31T21:05:17;7.88;;;4.45;;
40849;SDS011;26571;41.610;25.380;2022-10-31T21:12:52;6.95;;;4.72;;
40849;SDS011;26571;41.610;25.380;2022-10-31T21:18:17;5.35;;;3.65;;
40849;SDS011;26571;41.610;25.380;2022-10-31T21:31:05;8.30;;;4.47;;
40849;SDS011;26571;41.610;25.380;2022-10-31T21:36:07;6.93;;;4.40;;
40849;SDS011;26571;41.610;25.380;2022-10-31T23:44:23;4.75;;;3.65;;
